sensor_id;sensor_type;location;lat;lon;timestamp;P1;durP1;ratioP1;P2;durP2;ratioP2
6306;SDS011;3186;54.062;9.962;2023-11-21T00:02:19;8.10;;;5.57;;
6306;SDS011;3186;54.062;9.962;2023-11-21T00:04:45;6.50;;;5.60;;
6306;SDS011;3186;54.062;9.962;2023-11-21T00:07:13;6.70;;;5.90;;
6306;SDS011;3186;54.062;9.962;2023-11-21T00:09:39;7.87;;;6.43;;
6306;SDS011;3186;54.062;9.962;2023-11-21T00:12:06;9.50;;;5.93;;
6306;SDS011;3186;54.062;9.962;2023-11-21T00:14:35;8.20;;;6.57;;
6306;SDS011;3186;54.062;9.962;2023-11-21T00:17:04;11.83;;;7.30;;
6306;SDS011;3186;54.062;9.962;2023-11-21T00:19:31;10.00;;;7.90;;
6306;SDS011;3186;54.062;9.962;2023-11-21T00:21:57;9.17;;;8.07;;
6306;SDS011;3186;54.062;9.962;2023-11-21T00:24:23;11.43;;;7.63;;
6306;SDS011;3186;54.062;9.962;2023-11-21T00:26:50;12.73;;;7.83;;
6306;SDS011;3186;54.062;9.962;2023-11-21T00:29:17;9.30;;;7.40;;
6306;SDS011;3186;54.062;9.962;2023-11-21T00:31:43;11.43;;;8.27;;
6306;SDS011;3186;54.062;9.962;2023-11-21T00:34:11;12.27;;;8.43;;
6306;SDS011;3186;54.062;9.962;2023-11-21T00:36:37;11.63;;;9.17;;
6306;SDS011;3186;54.062;9.962;2023-11-21T00:39:03;10.67;;;8.80;;
6306;SDS011;3186;54.062;9.962;2023-11-21T00:41:30;13.83;;;9.10;;
6306;SDS011;3186;54.062;9.962;2023-11-21T00:43:56;11.50;;;8.93;;
6306;SDS011;3186;54.062;9.962;2023-11-21T00:46:22;13.70;;;9.37;;
6306;SDS011;3186;54.062;9.962;2023-11-21T00:48:49;10.37;;;9.17;;
6306;SDS011;3186;54.062;9.962;2023-11-21T00:51:16;14.00;;;9.40;;
6306;SDS011;3186;54.062;9.962;2023-11-21T00:53:42;13.17;;;9.57;;
6306;SDS011;3186;54.062;9.962;2023-11-21T00:56:08;13.57;;;9.47;;
6306;SDS011;3186;54.062;9.962;2023-11-21T00:58:34;12.67;;;9.17;;
6306;SDS011;3186;54.062;9.962;2023-11-21T01:01:00;13.03;;;9.37;;
6306;SDS011;3186;54.062;9.962;2023-11-21T01:03:26;14.13;;;10.03;;
6306;SDS011;3186;54.062;9.962;2023-11-21T01:05:51;12.13;;;9.57;;
6306;SDS011;3186;54.062;9.962;2023-11-21T01:08:17;12.00;;;9.23;;
6306;SDS011;3186;54.062;9.962;2023-11-21T01:10:43;13.53;;;9.03;;
6306;SDS011;3186;54.062;9.962;2023-11-21T01:13:08;17.87;;;10.17;;
6306;SDS011;3186;54.062;9.962;2023-11-21T01:15:36;11.27;;;8.13;;
6306;SDS011;3186;54.062;9.962;2023-11-21T01:18:02;13.67;;;9.23;;
6306;SDS011;3186;54.062;9.962;2023-11-21T01:20:28;10.83;;;8.30;;
6306;SDS011;3186;54.062;9.962;2023-11-21T01:22:54;10.40;;;8.70;;
6306;SDS011;3186;54.062;9.962;2023-11-21T01:25:20;10.33;;;9.23;;
6306;SDS011;3186;54.062;9.962;2023-11-21T01:27:47;11.97;;;9.30;;
6306;SDS011;3186;54.062;9.962;2023-11-21T01:30:13;13.70;;;10.00;;
6306;SDS011;3186;54.062;9.962;2023-11-21T01:32:39;10.47;;;9.00;;
6306;SDS011;3186;54.062;9.962;2023-11-21T01:35:05;14.07;;;9.37;;
6306;SDS011;3186;54.062;9.962;2023-11-21T01:37:31;12.60;;;9.97;;
6306;SDS011;3186;54.062;9.962;2023-11-21T01:39:58;11.73;;;9.13;;
6306;SDS011;3186;54.062;9.962;2023-11-21T01:42:24;15.00;;;10.47;;
6306;SDS011;3186;54.062;9.962;2023-11-21T01:44:50;12.30;;;9.90;;
6306;SDS011;3186;54.062;9.962;2023-11-21T01:47:15;11.00;;;8.87;;
6306;SDS011;3186;54.062;9.962;2023-11-21T01:49:45;11.60;;;9.07;;
6306;SDS011;3186;54.062;9.962;2023-11-21T01:52:12;11.90;;;9.70;;
6306;SDS011;3186;54.062;9.962;2023-11-21T01:54:38;12.10;;;8.93;;
6306;SDS011;3186;54.062;9.962;2023-11-21T01:57:04;11.43;;;9.10;;
6306;SDS011;3186;54.062;9.962;2023-11-21T01:59:37;12.27;;;9.47;;
6306;SDS011;3186;54.062;9.962;2023-11-21T02:02:07;13.30;;;9.13;;
6306;SDS011;3186;54.062;9.962;2023-11-21T02:04:35;13.70;;;9.70;;
6306;SDS011;3186;54.062;9.962;2023-11-21T02:07:02;12.47;;;9.80;;
6306;SDS011;3186;54.062;9.962;2023-11-21T02:09:31;13.03;;;10.10;;
6306;SDS011;3186;54.062;9.962;2023-11-21T02:11:58;14.73;;;10.47;;
6306;SDS011;3186;54.062;9.962;2023-11-21T02:14:25;12.97;;;9.47;;
6306;SDS011;3186;54.062;9.962;2023-11-21T02:16:52;12.93;;;9.73;;
6306;SDS011;3186;54.062;9.962;2023-11-21T02:19:19;14.90;;;9.87;;
6306;SDS011;3186;54.062;9.962;2023-11-21T02:21:51;13.77;;;10.17;;
6306;SDS011;3186;54.062;9.962;2023-11-21T02:24:20;14.93;;;9.90;;
6306;SDS011;3186;54.062;9.962;2023-11-21T02:26:50;15.10;;;10.23;;
6306;SDS011;3186;54.062;9.962;2023-11-21T02:29:19;11.80;;;9.53;;
6306;SDS011;3186;54.062;9.962;2023-11-21T02:31:47;13.13;;;10.27;;
6306;SDS011;3186;54.062;9.962;2023-11-21T02:34:15;13.00;;;10.10;;
6306;SDS011;3186;54.062;9.962;2023-11-21T02:36:45;18.40;;;10.73;;
6306;SDS011;3186;54.062;9.962;2023-11-21T02:39:12;14.90;;;10.37;;
6306;SDS011;3186;54.062;9.962;2023-11-21T02:41:38;11.17;;;9.97;;
6306;SDS011;3186;54.062;9.962;2023-11-21T02:44:04;15.40;;;10.00;;
6306;SDS011;3186;54.062;9.962;2023-11-21T02:46:33;13.37;;;10.30;;
6306;SDS011;3186;54.062;9.962;2023-11-21T02:49:03;13.30;;;9.87;;
6306;SDS011;3186;54.062;9.962;2023-11-21T02:51:32;14.57;;;10.47;;
6306;SDS011;3186;54.062;9.962;2023-11-21T02:53:58;21.20;;;10.57;;
6306;SDS011;3186;54.062;9.962;2023-11-21T02:56:26;11.17;;;9.97;;
6306;SDS011;3186;54.062;9.962;2023-11-21T02:58:55;13.50;;;10.20;;
6306;SDS011;3186;54.062;9.962;2023-11-21T03:01:21;15.10;;;9.47;;
6306;SDS011;3186;54.062;9.962;2023-11-21T03:03:48;16.47;;;11.13;;
6306;SDS011;3186;54.062;9.962;2023-11-21T03:06:16;13.03;;;9.80;;
6306;SDS011;3186;54.062;9.962;2023-11-21T03:08:43;13.97;;;10.60;;
6306;SDS011;3186;54.062;9.962;2023-11-21T03:11:08;14.33;;;10.20;;
6306;SDS011;3186;54.062;9.962;2023-11-21T03:13:34;12.07;;;10.10;;
6306;SDS011;3186;54.062;9.962;2023-11-21T03:16:00;14.30;;;10.50;;
6306;SDS011;3186;54.062;9.962;2023-11-21T03:18:25;15.13;;;10.20;;
6306;SDS011;3186;54.062;9.962;2023-11-21T03:20:52;12.80;;;10.33;;
6306;SDS011;3186;54.062;9.962;2023-11-21T03:23:17;14.10;;;10.70;;
6306;SDS011;3186;54.062;9.962;2023-11-21T03:25:43;15.30;;;10.40;;
6306;SDS011;3186;54.062;9.962;2023-11-21T03:28:09;13.57;;;9.67;;
6306;SDS011;3186;54.062;9.962;2023-11-21T03:30:35;11.23;;;9.60;;
6306;SDS011;3186;54.062;9.962;2023-11-21T03:33:00;14.80;;;10.67;;
6306;SDS011;3186;54.062;9.962;2023-11-21T03:35:26;12.40;;;10.37;;
6306;SDS011;3186;54.062;9.962;2023-11-21T03:37:53;12.23;;;9.97;;
6306;SDS011;3186;54.062;9.962;2023-11-21T03:40:18;13.67;;;11.27;;
6306;SDS011;3186;54.062;9.962;2023-11-21T03:42:46;14.60;;;11.60;;
6306;SDS011;3186;54.062;9.962;2023-11-21T03:45:12;13.87;;;10.80;;
6306;SDS011;3186;54.062;9.962;2023-11-21T03:47:39;13.70;;;11.03;;
6306;SDS011;3186;54.062;9.962;2023-11-21T03:50:08;17.40;;;12.00;;
6306;SDS011;3186;54.062;9.962;2023-11-21T03:52:35;14.20;;;10.53;;
6306;SDS011;3186;54.062;9.962;2023-11-21T03:55:01;15.50;;;11.77;;
6306;SDS011;3186;54.062;9.962;2023-11-21T03:57:27;19.30;;;13.47;;
6306;SDS011;3186;54.062;9.962;2023-11-21T03:59:53;16.80;;;13.10;;
6306;SDS011;3186;54.062;9.962;2023-11-21T04:02:19;14.50;;;11.77;;
6306;SDS011;3186;54.062;9.962;2023-11-21T04:04:45;17.13;;;12.97;;
6306;SDS011;3186;54.062;9.962;2023-11-21T04:07:10;16.87;;;13.10;;
6306;SDS011;3186;54.062;9.962;2023-11-21T04:09:38;16.63;;;12.90;;
6306;SDS011;3186;54.062;9.962;2023-11-21T04:12:04;20.30;;;14.13;;
6306;SDS011;3186;54.062;9.962;2023-11-21T04:14:30;17.60;;;13.97;;
6306;SDS011;3186;54.062;9.962;2023-11-21T04:16:56;17.63;;;13.57;;
6306;SDS011;3186;54.062;9.962;2023-11-21T04:19:22;16.53;;;13.67;;
6306;SDS011;3186;54.062;9.962;2023-11-21T04:21:48;19.50;;;14.40;;
6306;SDS011;3186;54.062;9.962;2023-11-21T04:24:13;21.67;;;14.73;;
6306;SDS011;3186;54.062;9.962;2023-11-21T04:26:39;18.50;;;14.03;;
6306;SDS011;3186;54.062;9.962;2023-11-21T04:29:05;17.03;;;13.97;;
6306;SDS011;3186;54.062;9.962;2023-11-21T04:31:30;19.80;;;14.07;;
6306;SDS011;3186;54.062;9.962;2023-11-21T04:33:56;16.87;;;13.30;;
6306;SDS011;3186;54.062;9.962;2023-11-21T04:36:22;17.97;;;13.50;;
6306;SDS011;3186;54.062;9.962;2023-11-21T04:38:48;19.20;;;14.37;;
6306;SDS011;3186;54.062;9.962;2023-11-21T04:41:13;15.80;;;12.73;;
6306;SDS011;3186;54.062;9.962;2023-11-21T04:43:39;17.20;;;11.93;;
6306;SDS011;3186;54.062;9.962;2023-11-21T04:46:05;13.53;;;11.50;;
6306;SDS011;3186;54.062;9.962;2023-11-21T04:48:32;17.70;;;12.10;;
6306;SDS011;3186;54.062;9.962;2023-11-21T04:50:58;15.07;;;11.07;;
6306;SDS011;3186;54.062;9.962;2023-11-21T04:53:24;13.00;;;10.07;;
6306;SDS011;3186;54.062;9.962;2023-11-21T04:55:50;15.40;;;10.80;;
6306;SDS011;3186;54.062;9.962;2023-11-21T04:58:15;15.93;;;10.20;;
6306;SDS011;3186;54.062;9.962;2023-11-21T05:00:41;16.73;;;11.17;;
6306;SDS011;3186;54.062;9.962;2023-11-21T05:03:09;11.43;;;10.23;;
6306;SDS011;3186;54.062;9.962;2023-11-21T05:05:34;14.73;;;10.63;;
6306;SDS011;3186;54.062;9.962;2023-11-21T05:08:00;12.97;;;10.10;;
6306;SDS011;3186;54.062;9.962;2023-11-21T05:10:26;14.50;;;10.47;;
6306;SDS011;3186;54.062;9.962;2023-11-21T05:12:52;11.37;;;9.77;;
6306;SDS011;3186;54.062;9.962;2023-11-21T05:15:17;16.90;;;10.67;;
6306;SDS011;3186;54.062;9.962;2023-11-21T05:17:44;12.20;;;9.87;;
6306;SDS011;3186;54.062;9.962;2023-11-21T05:20:11;11.83;;;9.67;;
6306;SDS011;3186;54.062;9.962;2023-11-21T05:22:38;12.57;;;10.43;;
6306;SDS011;3186;54.062;9.962;2023-11-21T05:25:05;13.30;;;10.70;;
6306;SDS011;3186;54.062;9.962;2023-11-21T05:27:33;12.97;;;10.63;;
6306;SDS011;3186;54.062;9.962;2023-11-21T05:29:59;14.07;;;10.23;;
6306;SDS011;3186;54.062;9.962;2023-11-21T05:32:30;12.33;;;10.20;;
6306;SDS011;3186;54.062;9.962;2023-11-21T05:34:59;15.43;;;10.73;;
6306;SDS011;3186;54.062;9.962;2023-11-21T05:37:24;15.53;;;10.30;;
6306;SDS011;3186;54.062;9.962;2023-11-21T05:39:52;12.03;;;10.30;;
6306;SDS011;3186;54.062;9.962;2023-11-21T05:42:18;13.03;;;10.00;;
6306;SDS011;3186;54.062;9.962;2023-11-21T05:44:44;10.93;;;9.57;;
6306;SDS011;3186;54.062;9.962;2023-11-21T05:47:10;13.50;;;11.57;;
6306;SDS011;3186;54.062;9.962;2023-11-21T05:49:36;12.03;;;9.77;;
6306;SDS011;3186;54.062;9.962;2023-11-21T05:52:02;13.80;;;10.93;;
6306;SDS011;3186;54.062;9.962;2023-11-21T05:54:27;12.03;;;9.93;;
6306;SDS011;3186;54.062;9.962;2023-11-21T05:56:53;14.43;;;10.07;;
6306;SDS011;3186;54.062;9.962;2023-11-21T05:59:19;12.60;;;9.90;;
6306;SDS011;3186;54.062;9.962;2023-11-21T06:01:45;15.20;;;9.90;;
6306;SDS011;3186;54.062;9.962;2023-11-21T06:04:11;12.03;;;9.70;;
6306;SDS011;3186;54.062;9.962;2023-11-21T06:06:38;11.70;;;9.23;;
6306;SDS011;3186;54.062;9.962;2023-11-21T06:09:04;12.00;;;9.80;;
6306;SDS011;3186;54.062;9.962;2023-11-21T06:11:31;14.23;;;9.43;;
6306;SDS011;3186;54.062;9.962;2023-11-21T06:13:57;11.50;;;8.87;;
6306;SDS011;3186;54.062;9.962;2023-11-21T06:16:23;11.57;;;8.97;;
6306;SDS011;3186;54.062;9.962;2023-11-21T06:18:49;14.00;;;9.80;;
6306;SDS011;3186;54.062;9.962;2023-11-21T06:21:15;13.43;;;8.97;;
6306;SDS011;3186;54.062;9.962;2023-11-21T06:23:42;13.57;;;9.00;;
6306;SDS011;3186;54.062;9.962;2023-11-21T06:26:07;12.97;;;8.40;;
6306;SDS011;3186;54.062;9.962;2023-11-21T06:28:34;12.30;;;8.63;;
6306;SDS011;3186;54.062;9.962;2023-11-21T06:31:01;10.63;;;8.37;;
6306;SDS011;3186;54.062;9.962;2023-11-21T06:33:33;9.10;;;7.63;;
6306;SDS011;3186;54.062;9.962;2023-11-21T06:35:59;12.30;;;7.70;;
6306;SDS011;3186;54.062;9.962;2023-11-21T06:38:28;8.30;;;7.33;;
6306;SDS011;3186;54.062;9.962;2023-11-21T06:40:58;11.57;;;7.67;;
6306;SDS011;3186;54.062;9.962;2023-11-21T06:43:27;7.90;;;6.97;;
6306;SDS011;3186;54.062;9.962;2023-11-21T06:45:52;12.57;;;6.90;;
6306;SDS011;3186;54.062;9.962;2023-11-21T06:48:19;9.40;;;6.53;;
6306;SDS011;3186;54.062;9.962;2023-11-21T06:50:45;9.30;;;7.07;;
6306;SDS011;3186;54.062;9.962;2023-11-21T06:53:11;9.70;;;6.53;;
6306;SDS011;3186;54.062;9.962;2023-11-21T06:55:38;8.67;;;6.40;;
6306;SDS011;3186;54.062;9.962;2023-11-21T06:58:04;8.90;;;7.13;;
6306;SDS011;3186;54.062;9.962;2023-11-21T07:00:30;9.90;;;6.80;;
6306;SDS011;3186;54.062;9.962;2023-11-21T07:02:56;7.93;;;6.10;;
6306;SDS011;3186;54.062;9.962;2023-11-21T07:05:21;9.03;;;6.97;;
6306;SDS011;3186;54.062;9.962;2023-11-21T07:07:48;9.63;;;6.23;;
6306;SDS011;3186;54.062;9.962;2023-11-21T07:10:14;12.53;;;7.07;;
6306;SDS011;3186;54.062;9.962;2023-11-21T07:12:40;8.43;;;6.90;;
6306;SDS011;3186;54.062;9.962;2023-11-21T07:15:06;8.47;;;6.47;;
6306;SDS011;3186;54.062;9.962;2023-11-21T07:17:37;8.27;;;6.37;;
6306;SDS011;3186;54.062;9.962;2023-11-21T07:20:03;8.30;;;6.43;;
6306;SDS011;3186;54.062;9.962;2023-11-21T07:22:29;9.27;;;6.40;;
6306;SDS011;3186;54.062;9.962;2023-11-21T07:24:55;10.33;;;5.90;;
6306;SDS011;3186;54.062;9.962;2023-11-21T07:27:21;8.77;;;7.10;;
6306;SDS011;3186;54.062;9.962;2023-11-21T07:29:47;9.37;;;6.83;;
6306;SDS011;3186;54.062;9.962;2023-11-21T07:32:13;7.73;;;6.00;;
6306;SDS011;3186;54.062;9.962;2023-11-21T07:34:40;8.57;;;6.63;;
6306;SDS011;3186;54.062;9.962;2023-11-21T07:37:07;9.00;;;6.30;;
6306;SDS011;3186;54.062;9.962;2023-11-21T07:39:34;7.83;;;6.20;;
6306;SDS011;3186;54.062;9.962;2023-11-21T07:42:01;9.23;;;7.07;;
6306;SDS011;3186;54.062;9.962;2023-11-21T07:44:27;10.43;;;7.27;;
6306;SDS011;3186;54.062;9.962;2023-11-21T07:46:54;10.07;;;6.17;;
6306;SDS011;3186;54.062;9.962;2023-11-21T07:49:22;9.80;;;6.33;;
6306;SDS011;3186;54.062;9.962;2023-11-21T07:51:49;13.60;;;7.00;;
6306;SDS011;3186;54.062;9.962;2023-11-21T07:54:15;10.33;;;7.03;;
6306;SDS011;3186;54.062;9.962;2023-11-21T07:56:41;8.57;;;6.40;;
6306;SDS011;3186;54.062;9.962;2023-11-21T07:59:07;7.43;;;6.40;;
6306;SDS011;3186;54.062;9.962;2023-11-21T08:01:33;10.37;;;6.70;;
6306;SDS011;3186;54.062;9.962;2023-11-21T08:03:58;12.13;;;7.20;;
6306;SDS011;3186;54.062;9.962;2023-11-21T08:06:30;10.00;;;6.37;;
6306;SDS011;3186;54.062;9.962;2023-11-21T08:08:56;11.70;;;6.73;;
6306;SDS011;3186;54.062;9.962;2023-11-21T08:11:22;8.10;;;6.50;;
6306;SDS011;3186;54.062;9.962;2023-11-21T08:13:47;10.50;;;6.57;;
6306;SDS011;3186;54.062;9.962;2023-11-21T08:16:13;9.87;;;6.87;;
6306;SDS011;3186;54.062;9.962;2023-11-21T08:18:39;8.13;;;6.60;;
6306;SDS011;3186;54.062;9.962;2023-11-21T08:21:06;8.07;;;6.53;;
6306;SDS011;3186;54.062;9.962;2023-11-21T08:23:33;9.33;;;6.93;;
6306;SDS011;3186;54.062;9.962;2023-11-21T08:25:59;9.87;;;7.20;;
6306;SDS011;3186;54.062;9.962;2023-11-21T08:28:25;8.10;;;6.67;;
6306;SDS011;3186;54.062;9.962;2023-11-21T08:30:51;7.87;;;5.87;;
6306;SDS011;3186;54.062;9.962;2023-11-21T08:33:18;9.00;;;6.77;;
6306;SDS011;3186;54.062;9.962;2023-11-21T08:35:44;10.67;;;6.60;;
6306;SDS011;3186;54.062;9.962;2023-11-21T08:38:11;7.00;;;6.30;;
6306;SDS011;3186;54.062;9.962;2023-11-21T08:40:37;10.03;;;6.57;;
6306;SDS011;3186;54.062;9.962;2023-11-21T08:43:03;8.10;;;7.00;;
6306;SDS011;3186;54.062;9.962;2023-11-21T08:45:33;8.80;;;7.23;;
6306;SDS011;3186;54.062;9.962;2023-11-21T08:47:59;8.57;;;6.70;;
6306;SDS011;3186;54.062;9.962;2023-11-21T08:50:26;7.47;;;6.40;;
6306;SDS011;3186;54.062;9.962;2023-11-21T08:52:51;13.27;;;7.03;;
6306;SDS011;3186;54.062;9.962;2023-11-21T08:55:17;9.47;;;6.87;;
6306;SDS011;3186;54.062;9.962;2023-11-21T08:57:45;8.50;;;6.43;;
6306;SDS011;3186;54.062;9.962;2023-11-21T09:00:11;12.73;;;7.27;;
6306;SDS011;3186;54.062;9.962;2023-11-21T09:02:38;10.03;;;7.60;;
6306;SDS011;3186;54.062;9.962;2023-11-21T09:05:05;10.97;;;6.97;;
6306;SDS011;3186;54.062;9.962;2023-11-21T09:07:31;9.93;;;6.57;;
6306;SDS011;3186;54.062;9.962;2023-11-21T09:09:57;8.90;;;6.67;;
6306;SDS011;3186;54.062;9.962;2023-11-21T09:12:22;9.47;;;6.30;;
6306;SDS011;3186;54.062;9.962;2023-11-21T09:14:50;9.63;;;6.63;;
6306;SDS011;3186;54.062;9.962;2023-11-21T09:17:16;8.93;;;6.80;;
6306;SDS011;3186;54.062;9.962;2023-11-21T09:19:41;10.93;;;6.77;;
6306;SDS011;3186;54.062;9.962;2023-11-21T09:22:10;9.80;;;7.03;;
6306;SDS011;3186;54.062;9.962;2023-11-21T09:24:36;11.70;;;7.40;;
6306;SDS011;3186;54.062;9.962;2023-11-21T09:27:02;8.57;;;6.60;;
6306;SDS011;3186;54.062;9.962;2023-11-21T09:29:30;10.17;;;5.70;;
6306;SDS011;3186;54.062;9.962;2023-11-21T09:31:56;11.23;;;6.93;;
6306;SDS011;3186;54.062;9.962;2023-11-21T09:34:24;8.70;;;6.60;;
6306;SDS011;3186;54.062;9.962;2023-11-21T09:36:50;7.93;;;5.93;;
6306;SDS011;3186;54.062;9.962;2023-11-21T09:39:16;9.73;;;6.13;;
6306;SDS011;3186;54.062;9.962;2023-11-21T09:41:44;7.73;;;5.80;;
6306;SDS011;3186;54.062;9.962;2023-11-21T09:44:17;7.93;;;5.87;;
6306;SDS011;3186;54.062;9.962;2023-11-21T09:46:45;9.07;;;5.77;;
6306;SDS011;3186;54.062;9.962;2023-11-21T09:49:18;9.20;;;6.67;;
6306;SDS011;3186;54.062;9.962;2023-11-21T09:51:50;9.90;;;6.27;;
6306;SDS011;3186;54.062;9.962;2023-11-21T09:54:20;9.13;;;6.57;;
6306;SDS011;3186;54.062;9.962;2023-11-21T09:56:46;11.70;;;6.47;;
6306;SDS011;3186;54.062;9.962;2023-11-21T09:59:13;8.83;;;5.87;;
6306;SDS011;3186;54.062;9.962;2023-11-21T10:01:40;8.20;;;6.27;;
6306;SDS011;3186;54.062;9.962;2023-11-21T10:04:07;12.03;;;6.00;;
6306;SDS011;3186;54.062;9.962;2023-11-21T10:06:40;10.17;;;5.73;;
6306;SDS011;3186;54.062;9.962;2023-11-21T10:09:09;10.63;;;6.27;;
6306;SDS011;3186;54.062;9.962;2023-11-21T10:11:40;6.27;;;5.23;;
6306;SDS011;3186;54.062;9.962;2023-11-21T10:14:08;9.30;;;5.07;;
6306;SDS011;3186;54.062;9.962;2023-11-21T10:16:41;7.17;;;5.60;;
6306;SDS011;3186;54.062;9.962;2023-11-21T10:19:09;8.60;;;5.87;;
6306;SDS011;3186;54.062;9.962;2023-11-21T10:21:35;8.50;;;5.17;;
6306;SDS011;3186;54.062;9.962;2023-11-21T10:24:03;7.40;;;5.27;;
6306;SDS011;3186;54.062;9.962;2023-11-21T10:26:29;5.27;;;4.17;;
6306;SDS011;3186;54.062;9.962;2023-11-21T10:29:02;5.33;;;4.43;;
6306;SDS011;3186;54.062;9.962;2023-11-21T10:31:29;7.13;;;4.90;;
6306;SDS011;3186;54.062;9.962;2023-11-21T10:36:41;5.43;;;4.10;;
6306;SDS011;3186;54.062;9.962;2023-11-21T10:39:08;10.23;;;5.13;;
6306;SDS011;3186;54.062;9.962;2023-11-21T10:41:35;5.17;;;4.03;;
6306;SDS011;3186;54.062;9.962;2023-11-21T10:44:01;6.53;;;4.87;;
6306;SDS011;3186;54.062;9.962;2023-11-21T10:46:32;7.43;;;4.40;;
6306;SDS011;3186;54.062;9.962;2023-11-21T10:48:59;5.97;;;4.40;;
6306;SDS011;3186;54.062;9.962;2023-11-21T10:51:25;7.50;;;4.27;;
6306;SDS011;3186;54.062;9.962;2023-11-21T10:53:53;7.43;;;5.03;;
6306;SDS011;3186;54.062;9.962;2023-11-21T10:56:19;9.60;;;4.80;;
6306;SDS011;3186;54.062;9.962;2023-11-21T10:58:48;7.67;;;4.90;;
6306;SDS011;3186;54.062;9.962;2023-11-21T11:01:16;8.57;;;4.97;;
6306;SDS011;3186;54.062;9.962;2023-11-21T11:03:44;9.67;;;5.10;;
6306;SDS011;3186;54.062;9.962;2023-11-21T11:06:10;10.23;;;4.93;;
6306;SDS011;3186;54.062;9.962;2023-11-21T11:08:37;9.10;;;6.07;;
6306;SDS011;3186;54.062;9.962;2023-11-21T11:11:05;6.87;;;5.00;;
6306;SDS011;3186;54.062;9.962;2023-11-21T11:13:31;8.13;;;5.13;;
6306;SDS011;3186;54.062;9.962;2023-11-21T11:16:01;9.60;;;5.17;;
6306;SDS011;3186;54.062;9.962;2023-11-21T11:18:28;7.23;;;5.10;;
6306;SDS011;3186;54.062;9.962;2023-11-21T11:21:07;9.23;;;5.33;;
6306;SDS011;3186;54.062;9.962;2023-11-21T11:23:59;6.00;;;4.50;;
6306;SDS011;3186;54.062;9.962;2023-11-21T11:29:40;8.20;;;5.20;;
6306;SDS011;3186;54.062;9.962;2023-11-21T11:32:17;7.63;;;5.30;;
6306;SDS011;3186;54.062;9.962;2023-11-21T11:35:03;5.97;;;5.03;;
6306;SDS011;3186;54.062;9.962;2023-11-21T11:37:35;5.63;;;5.00;;
6306;SDS011;3186;54.062;9.962;2023-11-21T11:40:01;6.50;;;4.63;;
6306;SDS011;3186;54.062;9.962;2023-11-21T11:42:32;6.27;;;4.73;;
6306;SDS011;3186;54.062;9.962;2023-11-21T11:44:57;6.87;;;5.10;;
6306;SDS011;3186;54.062;9.962;2023-11-21T11:47:24;6.67;;;5.07;;
6306;SDS011;3186;54.062;9.962;2023-11-21T11:52:47;7.33;;;4.53;;
6306;SDS011;3186;54.062;9.962;2023-11-21T11:55:23;7.47;;;4.90;;
6306;SDS011;3186;54.062;9.962;2023-11-21T11:57:52;5.47;;;4.67;;
6306;SDS011;3186;54.062;9.962;2023-11-21T12:02:53;5.47;;;4.77;;
6306;SDS011;3186;54.062;9.962;2023-11-21T12:05:22;6.70;;;4.73;;
6306;SDS011;3186;54.062;9.962;2023-11-21T12:10:19;6.30;;;4.47;;
6306;SDS011;3186;54.062;9.962;2023-11-21T12:12:59;6.70;;;4.87;;
6306;SDS011;3186;54.062;9.962;2023-11-21T12:15:26;6.17;;;4.77;;
6306;SDS011;3186;54.062;9.962;2023-11-21T12:17:55;9.17;;;4.80;;
6306;SDS011;3186;54.062;9.962;2023-11-21T12:20:22;6.00;;;4.77;;
6306;SDS011;3186;54.062;9.962;2023-11-21T12:22:52;7.93;;;4.20;;
6306;SDS011;3186;54.062;9.962;2023-11-21T12:25:23;7.17;;;4.60;;
6306;SDS011;3186;54.062;9.962;2023-11-21T12:27:53;7.13;;;4.53;;
6306;SDS011;3186;54.062;9.962;2023-11-21T12:30:20;7.23;;;4.63;;
6306;SDS011;3186;54.062;9.962;2023-11-21T12:32:51;6.03;;;5.00;;
6306;SDS011;3186;54.062;9.962;2023-11-21T12:35:22;6.60;;;4.17;;
6306;SDS011;3186;54.062;9.962;2023-11-21T12:37:52;5.67;;;4.43;;
6306;SDS011;3186;54.062;9.962;2023-11-21T12:40:19;9.83;;;5.23;;
6306;SDS011;3186;54.062;9.962;2023-11-21T12:42:48;6.70;;;4.40;;
6306;SDS011;3186;54.062;9.962;2023-11-21T12:47:55;5.87;;;4.53;;
6306;SDS011;3186;54.062;9.962;2023-11-21T12:50:28;6.30;;;4.27;;
6306;SDS011;3186;54.062;9.962;2023-11-21T12:53:01;7.80;;;4.00;;
6306;SDS011;3186;54.062;9.962;2023-11-21T12:55:31;6.50;;;4.33;;
6306;SDS011;3186;54.062;9.962;2023-11-21T12:57:58;7.40;;;4.37;;
6306;SDS011;3186;54.062;9.962;2023-11-21T13:00:37;6.77;;;4.27;;
6306;SDS011;3186;54.062;9.962;2023-11-21T13:03:05;6.23;;;4.60;;
6306;SDS011;3186;54.062;9.962;2023-11-21T13:05:37;6.87;;;4.50;;
6306;SDS011;3186;54.062;9.962;2023-11-21T13:08:04;7.43;;;4.73;;
6306;SDS011;3186;54.062;9.962;2023-11-21T13:10:38;5.97;;;4.20;;
6306;SDS011;3186;54.062;9.962;2023-11-21T13:13:05;4.93;;;4.20;;
6306;SDS011;3186;54.062;9.962;2023-11-21T13:15:34;6.03;;;4.37;;
6306;SDS011;3186;54.062;9.962;2023-11-21T13:18:03;6.00;;;4.40;;
6306;SDS011;3186;54.062;9.962;2023-11-21T13:20:29;6.67;;;3.87;;
6306;SDS011;3186;54.062;9.962;2023-11-21T13:22:55;5.20;;;3.80;;
6306;SDS011;3186;54.062;9.962;2023-11-21T13:25:26;6.67;;;4.23;;
6306;SDS011;3186;54.062;9.962;2023-11-21T13:27:55;5.93;;;4.33;;
6306;SDS011;3186;54.062;9.962;2023-11-21T13:30:21;8.00;;;4.30;;
6306;SDS011;3186;54.062;9.962;2023-11-21T13:32:51;6.90;;;4.37;;
6306;SDS011;3186;54.062;9.962;2023-11-21T13:35:18;6.57;;;4.40;;
6306;SDS011;3186;54.062;9.962;2023-11-21T13:37:55;7.03;;;4.70;;
6306;SDS011;3186;54.062;9.962;2023-11-21T13:40:25;10.03;;;4.23;;
6306;SDS011;3186;54.062;9.962;2023-11-21T13:42:55;5.00;;;3.80;;
6306;SDS011;3186;54.062;9.962;2023-11-21T13:45:24;5.93;;;4.57;;
6306;SDS011;3186;54.062;9.962;2023-11-21T13:47:52;8.77;;;4.43;;
6306;SDS011;3186;54.062;9.962;2023-11-21T13:50:25;7.27;;;4.47;;
6306;SDS011;3186;54.062;9.962;2023-11-21T13:53:02;5.67;;;4.40;;
6306;SDS011;3186;54.062;9.962;2023-11-21T13:55:36;6.30;;;4.30;;
6306;SDS011;3186;54.062;9.962;2023-11-21T13:58:02;8.40;;;4.67;;
6306;SDS011;3186;54.062;9.962;2023-11-21T14:00:29;5.23;;;4.30;;
6306;SDS011;3186;54.062;9.962;2023-11-21T14:03:10;7.03;;;4.27;;
6306;SDS011;3186;54.062;9.962;2023-11-21T14:05:44;5.47;;;3.80;;
6306;SDS011;3186;54.062;9.962;2023-11-21T14:08:12;5.87;;;3.93;;
6306;SDS011;3186;54.062;9.962;2023-11-21T14:10:41;7.33;;;4.40;;
6306;SDS011;3186;54.062;9.962;2023-11-21T14:13:15;5.87;;;4.40;;
6306;SDS011;3186;54.062;9.962;2023-11-21T14:15:42;8.17;;;5.00;;
6306;SDS011;3186;54.062;9.962;2023-11-21T14:18:11;8.47;;;4.47;;
6306;SDS011;3186;54.062;9.962;2023-11-21T14:20:39;10.13;;;4.43;;
6306;SDS011;3186;54.062;9.962;2023-11-21T14:23:06;9.23;;;4.60;;
6306;SDS011;3186;54.062;9.962;2023-11-21T14:25:35;8.33;;;4.53;;
6306;SDS011;3186;54.062;9.962;2023-11-21T14:28:02;7.27;;;4.50;;
6306;SDS011;3186;54.062;9.962;2023-11-21T14:30:29;5.37;;;4.30;;
6306;SDS011;3186;54.062;9.962;2023-11-21T14:32:57;8.50;;;4.37;;
6306;SDS011;3186;54.062;9.962;2023-11-21T14:35:23;8.10;;;4.03;;
6306;SDS011;3186;54.062;9.962;2023-11-21T14:37:49;9.73;;;4.00;;
6306;SDS011;3186;54.062;9.962;2023-11-21T14:40:15;6.40;;;4.10;;
6306;SDS011;3186;54.062;9.962;2023-11-21T14:42:42;6.00;;;3.90;;
6306;SDS011;3186;54.062;9.962;2023-11-21T14:45:08;5.60;;;4.10;;
6306;SDS011;3186;54.062;9.962;2023-11-21T14:47:37;4.90;;;3.80;;
6306;SDS011;3186;54.062;9.962;2023-11-21T14:50:07;6.13;;;3.93;;
6306;SDS011;3186;54.062;9.962;2023-11-21T14:52:53;6.10;;;4.07;;
6306;SDS011;3186;54.062;9.962;2023-11-21T14:55:24;6.43;;;4.30;;
6306;SDS011;3186;54.062;9.962;2023-11-21T14:57:57;6.40;;;4.53;;
6306;SDS011;3186;54.062;9.962;2023-11-21T15:00:27;4.77;;;4.20;;
6306;SDS011;3186;54.062;9.962;2023-11-21T15:02:59;7.37;;;4.80;;
6306;SDS011;3186;54.062;9.962;2023-11-21T15:05:25;9.47;;;4.33;;
6306;SDS011;3186;54.062;9.962;2023-11-21T15:07:53;5.50;;;4.03;;
6306;SDS011;3186;54.062;9.962;2023-11-21T15:10:21;5.17;;;4.00;;
6306;SDS011;3186;54.062;9.962;2023-11-21T15:13:10;7.77;;;4.30;;
6306;SDS011;3186;54.062;9.962;2023-11-21T15:15:36;8.30;;;4.47;;
6306;SDS011;3186;54.062;9.962;2023-11-21T15:18:03;5.57;;;3.87;;
6306;SDS011;3186;54.062;9.962;2023-11-21T15:20:29;6.73;;;4.50;;
6306;SDS011;3186;54.062;9.962;2023-11-21T15:22:55;6.67;;;3.90;;
6306;SDS011;3186;54.062;9.962;2023-11-21T15:25:21;5.93;;;4.63;;